Time;durP1;ratioP1;P1;durP2;ratioP2;P2;SDS_P1;SDS_P2;PMS_P1;PMS_P2;Temp;Humidity;BMP_temperature;BMP_pressure;BME280_temperature;BME280_humidity;BME280_pressure;Samples;Min_cycle;Max_cycle;Signal;HPM_P1;HPM_P2
2022/03/07 00:01:34;;;;;;;20.35;10.25;;;;;;;-3.31;100.00;102375.06;5068164;28;20040;-72
2022/03/07 00:04:02;;;;;;;26.83;10.57;;;;;;;-3.28;100.00;102381.09;5067933;28;20114;-72
2022/03/07 00:06:28;;;;;;;17.73;9.52;;;;;;;-3.26;100.00;102394.94;5068127;28;20039;-73
2022/03/07 00:08:53;;;;;;;21.08;9.82;;;;;;;-3.33;100.00;102393.34;5086241;28;20032;-72
2022/03/07 00:11:20;;;;;;;22.73;9.82;;;;;;;-3.31;100.00;102393.34;5085987;28;20492;-72
2022/03/07 00:13:46;;;;;;;18.05;8.80;;;;;;;-3.32;100.00;102389.88;5068059;28;20036;-73
2022/03/07 00:16:12;;;;;;;20.73;9.52;;;;;;;-3.29;100.00;102388.94;5086001;28;20039;-73
2022/03/07 00:18:38;;;;;;;20.50;10.05;;;;;;;-3.30;100.00;102387.19;5067802;28;20032;-72
2022/03/07 00:21:05;;;;;;;19.13;9.27;;;;;;;-3.34;100.00;102389.03;5051255;28;20039;-72
2022/03/07 00:23:30;;;;;;;21.55;9.90;;;;;;;-3.35;100.00;102394.28;5086116;28;20035;-72
2022/03/07 00:25:56;;;;;;;23.95;10.38;;;;;;;-3.43;100.00;102386.63;5067867;28;20522;-73
2022/03/07 00:28:21;;;;;;;18.90;8.93;;;;;;;-3.46;100.00;102387.53;5067649;28;20058;-73
2022/03/07 00:30:47;;;;;;;19.70;9.98;;;;;;;-3.48;100.00;102378.88;5050934;28;20036;-74
2022/03/07 00:33:14;;;;;;;22.45;10.63;;;;;;;-3.50;100.00;102380.66;5085592;28;20536;-73
2022/03/07 00:35:39;;;;;;;14.70;9.48;;;;;;;-3.51;100.00;102384.19;5068017;28;20089;-72
2022/03/07 00:38:05;;;;;;;18.02;9.10;;;;;;;-3.54;100.00;102386.81;5051155;28;20702;-73
2022/03/07 00:40:31;;;;;;;21.80;9.98;;;;;;;-3.58;100.00;102385.19;5067382;28;20497;-72
2022/03/07 00:42:57;;;;;;;15.25;8.45;;;;;;;-3.54;100.00;102379.00;5067738;28;20567;-73
2022/03/07 00:45:23;;;;;;;18.35;9.25;;;;;;;-3.51;100.00;102384.19;5067579;28;20574;-73
2022/03/07 00:47:48;;;;;;;20.83;10.13;;;;;;;-3.52;100.00;102381.59;5067419;28;20028;-73
2022/03/07 00:50:13;;;;;;;27.33;12.50;;;;;;;-3.51;100.00;102384.19;5067246;28;20028;-73
2022/03/07 00:52:39;;;;;;;21.98;10.82;;;;;;;-3.54;100.00;102383.38;5067579;28;20428;-72
2022/03/07 00:55:05;;;;;;;21.88;10.23;;;;;;;-3.63;100.00;102379.19;5067616;28;20035;-72
2022/03/07 00:57:31;;;;;;;;;;;;;;;-3.65;100.00;102378.38;5067708;28;20047;-72
2022/03/07 00:59:56;;;;;;;20.25;9.90;;;;;;;-3.71;100.00;102368.91;5067086;28;19970;-72
2022/03/07 01:02:22;;;;;;;19.10;9.43;;;;;;;-3.72;100.00;102379.38;5067039;28;20130;-73
2022/03/07 01:04:47;;;;;;;20.67;9.40;;;;;;;-3.73;100.00;102375.91;5067468;28;20044;-73
2022/03/07 01:07:12;;;;;;;16.95;8.98;;;;;;;-3.64;100.00;102393.16;5050786;28;20031;-73
2022/03/07 01:09:38;;;;;;;18.55;9.27;;;;;;;-3.61;100.00;102380.91;5084955;28;20515;-72
2022/03/07 01:12:04;;;;;;;22.67;9.70;;;;;;;-3.65;100.00;102386.22;5067280;28;20042;-73
2022/03/07 01:14:29;;;;;;;17.15;8.95;;;;;;;-3.59;100.00;102386.06;5050532;28;20372;-72
2022/03/07 01:16:55;;;;;;;16.17;8.38;;;;;;;-3.68;100.00;102386.25;5050558;28;20478;-72
2022/03/07 01:19:20;;;;;;;22.63;10.23;;;;;;;-3.68;100.00;102381.03;5067060;28;20036;-72
2022/03/07 01:21:46;;;;;;;13.60;7.18;;;;;;;-3.70;100.00;102382.81;5067122;28;20116;-73
2022/03/07 01:24:11;;;;;;;15.50;8.20;;;;;;;-3.75;100.00;102384.66;5067044;28;20443;-73
2022/03/07 01:26:37;;;;;;;18.58;9.32;;;;;;;-3.76;100.00;102377.72;5067516;28;20035;-74
2022/03/07 01:29:04;;;;;;;16.88;7.35;;;;;;;-3.82;100.00;102387.41;5067013;28;20146;-72
2022/03/07 01:31:30;;;;;;;16.48;7.97;;;;;;;-3.85;100.00;102384.84;5084899;28;20032;-72
2022/03/07 01:33:55;;;;;;;18.88;8.35;;;;;;;-3.85;100.00;102387.44;5066957;28;20047;-72
2022/03/07 01:36:21;;;;;;;15.45;7.57;;;;;;;-3.87;100.00;102386.63;5085187;28;20039;-72
2022/03/07 01:38:47;;;;;;;17.83;8.65;;;;;;;-3.90;100.00;102391.91;5050263;28;20035;-73
2022/03/07 01:41:12;;;;;;;17.15;7.53;;;;;;;-3.90;100.00;102386.69;5054270;28;20404;-73
2022/03/07 01:43:38;;;;;;;16.10;7.28;;;;;;;-3.89;100.00;102377.09;5054331;28;20230;-74
2022/03/07 01:46:03;;;;;;;13.50;7.18;;;;;;;-3.95;100.00;102367.66;5070738;28;20373;-73
2022/03/07 01:48:29;;;;;;;14.50;6.72;;;;;;;-3.89;100.00;102374.50;5054116;28;20044;-72
2022/03/07 01:50:54;;;;;;;24.05;7.40;;;;;;;-3.89;100.00;102367.50;5070657;28;20020;-72
2022/03/07 01:53:20;;;;;;;24.73;8.68;;;;;;;-3.84;100.00;102368.31;5054131;28;20040;-73
2022/03/07 01:55:46;;;;;;;18.23;8.52;;;;;;;-3.82;100.00;102370.88;5070604;28;20605;-72
2022/03/07 01:58:12;;;;;;;21.67;8.18;;;;;;;-3.84;100.00;102376.13;5071038;28;20066;-73
2022/03/07 02:00:39;;;;;;;25.15;9.05;;;;;;;-3.91;100.00;102374.53;5053270;28;20055;-73
2022/03/07 02:03:05;;;;;;;19.38;8.45;;;;;;;-3.96;100.00;102365.91;5054085;28;20036;-72
2022/03/07 02:05:41;;;;;;;17.92;8.50;;;;;;;-3.97;100.00;102372.03;5054897;28;20038;-73
2022/03/07 02:08:12;;;;;;;20.13;9.40;;;;;;;-4.04;100.00;102370.44;5054726;28;20105;-73
2022/03/07 02:10:47;;;;;;;17.05;7.07;;;;;;;-4.04;100.00;102376.50;5069884;28;20047;-74
2022/03/07 02:13:16;;;;;;;21.02;8.23;;;;;;;-4.06;100.00;102367.84;5053841;28;20450;-72
2022/03/07 02:15:54;;;;;;;17.10;8.30;;;;;;;-4.05;100.00;102366.09;5054194;28;20020;-73
2022/03/07 02:18:21;;;;;;;14.68;8.55;;;;;;;-4.07;100.00;102365.28;5070305;28;20465;-73
2022/03/07 02:20:54;;;;;;;18.27;8.68;;;;;;;-4.12;100.00;102354.06;5069906;28;20028;-72
2022/03/07 02:23:20;;;;;;;18.13;7.65;;;;;;;-4.16;100.00;102365.47;5070405;28;20131;-73
2022/03/07 02:25:45;;;;;;;13.30;7.20;;;;;;;-4.15;100.00;102369.78;5061001;28;20115;-73
2022/03/07 02:28:10;;;;;;;15.57;7.60;;;;;;;-4.18;100.00;102360.25;5041577;28;20036;-72
2022/03/07 02:30:36;;;;;;;14.60;7.07;;;;;;;-4.18;100.00;102360.25;5033200;28;20422;-73
2022/03/07 02:33:01;;;;;;;15.35;7.15;;;;;;;-4.11;100.00;102367.06;5049727;28;20036;-73
2022/03/07 02:35:26;;;;;;;16.02;8.07;;;;;;;-4.11;100.00;102356.63;5033204;28;20033;-73
2022/03/07 02:37:52;;;;;;;13.90;7.07;;;;;;;-4.03;100.00;102364.31;5033354;28;20408;-73
2022/03/07 02:40:20;;;;;;;16.73;8.63;;;;;;;-4.08;100.00;102358.34;5067289;28;20033;-73
2022/03/07 02:42:46;;;;;;;15.43;7.43;;;;;;;-4.00;100.00;102372.09;5049732;28;20493;-72
2022/03/07 02:45:11;;;;;;;14.35;7.32;;;;;;;-4.03;100.00;102370.41;5049756;28;20044;-74
2022/03/07 02:47:37;;;;;;;21.60;7.78;;;;;;;-4.16;100.00;102368.91;5049447;28;20048;-74
2022/03/07 02:50:03;;;;;;;16.20;7.22;;;;;;;-4.22;100.00;102369.03;5049001;28;20017;-74
2022/03/07 02:52:29;;;;;;;15.38;7.43;;;;;;;-4.30;100.00;102371.78;5031985;28;20039;-73
2022/03/07 02:54:54;;;;;;;13.25;6.93;;;;;;;-4.35;100.00;102378.81;5067475;28;20032;-73
2022/03/07 02:57:19;;;;;;;14.18;7.30;;;;;;;-4.34;100.00;102382.28;5067445;28;20032;-73
2022/03/07 02:59:45;;;;;;;15.40;8.38;;;;;;;-4.34;100.00;102377.06;5049251;28;20489;-74
2022/03/07 03:02:10;;;;;;;17.17;7.82;;;;;;;-4.28;100.00;102380.44;5066817;28;20101;-73
2022/03/07 03:04:36;;;;;;;16.48;7.70;;;;;;;-4.32;100.00;102372.69;5032749;28;20260;-73
2022/03/07 03:07:02;;;;;;;;;;;;;;;-4.33;100.00;102381.38;5049731;28;20072;-74
2022/03/07 03:09:28;;;;;;;16.13;7.97;;;;;;;-4.28;100.00;102372.59;5066969;28;19954;-73
2022/03/07 03:11:53;;;;;;;14.43;7.45;;;;;;;-4.27;100.00;102379.53;5032227;28;20020;-73
2022/03/07 03:14:19;;;;;;;17.73;7.85;;;;;;;-4.28;100.00;102377.81;5067075;28;20231;-73
2022/03/07 03:16:44;;;;;;;18.38;7.93;;;;;;;-4.31;100.00;102372.69;5048769;28;20170;-73
2022/03/07 03:19:09;;;;;;;15.45;8.50;;;;;;;-4.28;100.00;102375.22;5067039;28;20064;-73
2022/03/07 03:21:35;;;;;;;14.52;8.05;;;;;;;-4.35;100.00;102363.19;5048986;28;20094;-74
2022/03/07 03:24:00;;;;;;;12.25;6.35;;;;;;;-4.37;100.00;102370.16;5048892;28;20032;-73
2022/03/07 03:26:25;;;;;;;16.73;7.78;;;;;;;-4.36;100.00;102371.03;5067050;28;20036;-73
2022/03/07 03:28:51;;;;;;;19.25;8.43;;;;;;;-4.35;100.00;102371.00;5048415;28;20024;-73
2022/03/07 03:31:16;;;;;;;16.00;7.38;;;;;;;-4.35;100.00;102357.09;5048705;28;20108;-74
2022/03/07 03:33:42;;;;;;;22.33;8.55;;;;;;;-4.34;100.00;102359.66;5048951;28;20427;-74
2022/03/07 03:36:08;;;;;;;18.40;10.13;;;;;;;-4.33;100.00;102356.19;5049025;28;20128;-73
2022/03/07 03:38:33;;;;;;;20.00;8.60;;;;;;;-4.32;100.00;102351.81;5048361;28;20047;-73
2022/03/07 03:40:59;;;;;;;17.42;7.97;;;;;;;-4.30;100.00;102345.69;5048480;28;20133;-73
2022/03/07 03:43:24;;;;;;;16.67;7.40;;;;;;;-4.34;100.00;102348.38;5048630;28;20024;-73
2022/03/07 03:45:49;;;;;;;14.93;7.72;;;;;;;-4.37;100.00;102344.09;5066109;28;20039;-73
2022/03/07 03:48:15;;;;;;;22.05;9.07;;;;;;;-4.36;100.00;102340.56;5048419;28;20441;-73
2022/03/07 03:50:40;;;;;;;16.45;7.03;;;;;;;-4.39;100.00;102343.25;5048132;28;20020;-73
2022/03/07 03:53:06;;;;;;;19.88;8.18;;;;;;;-4.40;100.00;102341.53;5031855;28;20480;-74
2022/03/07 03:55:31;;;;;;;18.23;7.60;;;;;;;-4.44;100.00;102333.81;5066264;28;20040;-73
2022/03/07 03:57:57;;;;;;;20.00;8.48;;;;;;;-4.41;100.00;102342.41;5031694;28;20032;-74
2022/03/07 04:00:23;;;;;;;21.58;10.13;;;;;;;-4.36;100.00;102343.19;5065885;28;20078;-73
2022/03/07 04:02:49;;;;;;;22.25;10.90;;;;;;;-4.39;100.00;102343.25;5047976;28;20047;-73
2022/03/07 04:05:15;;;;;;;27.52;10.35;;;;;;;-4.43;100.00;102343.34;5048128;28;20028;-73
2022/03/07 04:07:41;;;;;;;24.58;10.05;;;;;;;-4.42;100.00;102356.34;5048266;28;20071;-73
2022/03/07 04:10:07;;;;;;;22.80;8.77;;;;;;;-4.37;100.00;102369.31;5047622;28;20151;-73
2022/03/07 04:12:33;;;;;;;18.52;9.38;;;;;;;-4.49;100.00;102368.63;5090378;22;20562;-77
2022/03/07 04:14:59;;;;;;;18.58;7.95;;;;;;;-4.59;100.00;102359.25;5060350;28;20040;-77
2022/03/07 04:17:24;;;;;;;21.08;9.35;;;;;;;-4.61;100.00;102349.72;5088321;28;20126;-76
2022/03/07 04:19:49;;;;;;;18.33;8.98;;;;;;;-4.53;100.00;102364.34;5085763;28;20036;-76
2022/03/07 04:22:15;;;;;;;13.27;7.20;;;;;;;-4.55;100.00;102373.94;5052700;28;20096;-77
2022/03/07 04:24:41;;;;;;;14.05;7.72;;;;;;;-4.60;100.00;102372.31;5086184;28;20036;-77
2022/03/07 04:27:06;;;;;;;;;;;;;;;-4.63;100.00;102381.03;5069837;28;20520;-77
2022/03/07 04:29:32;;;;;;;14.07;7.22;;;;;;;-4.58;100.00;102388.78;5087735;28;19920;-75
2022/03/07 04:31:57;;;;;;;15.88;7.50;;;;;;;-4.60;100.00;102390.56;5069504;28;20066;-77
2022/03/07 04:34:23;;;;;;;17.40;8.38;;;;;;;-4.63;100.00;102382.78;5069168;28;20388;-76
2022/03/07 04:36:49;;;;;;;18.08;9.88;;;;;;;-4.53;100.00;102393.03;5069208;28;20086;-76
2022/03/07 04:39:14;;;;;;;27.85;12.32;;;;;;;-4.53;100.00;102380.00;5086799;28;20031;-76
2022/03/07 04:41:40;;;;;;;27.15;9.55;;;;;;;-4.46;100.00;102391.19;5085919;28;20024;-76
2022/03/07 04:44:06;;;;;;;21.83;10.23;;;;;;;-4.48;100.00;102401.63;5068868;28;20097;-76
2022/03/07 04:46:31;;;;;;;;;;;;;;;-4.56;100.00;102403.50;5069947;28;20040;-76
2022/03/07 04:48:57;;;;;;;19.00;8.25;;;;;;;-4.63;100.00;102408.84;5068430;28;20015;-76
2022/03/07 04:51:23;;;;;;;20.90;9.18;;;;;;;-4.68;100.00;102407.19;5069042;28;20111;-77
2022/03/07 04:53:48;;;;;;;16.95;9.30;;;;;;;-4.63;100.00;102411.47;5069640;28;20043;-77
2022/03/07 04:56:15;;;;;;;22.27;8.38;;;;;;;-4.83;100.00;102386.56;5052495;28;20020;-76
2022/03/07 04:58:40;;;;;;;38.42;16.45;;;;;;;-4.86;100.00;102384.00;5085739;28;20036;-77
2022/03/07 05:01:06;;;;;;;29.00;12.25;;;;;;;-4.80;100.00;102402.16;5087302;28;20099;-76
2022/03/07 05:03:31;;;;;;;25.40;12.05;;;;;;;-4.82;100.00;102406.53;5052641;28;20155;-76
2022/03/07 05:05:58;;;;;;;28.15;9.13;;;;;;;-4.75;100.00;102423.78;5053891;28;20103;-75
2022/03/07 05:08:23;;;;;;;20.58;9.07;;;;;;;-4.67;100.00;102421.91;5053604;28;20040;-77
2022/03/07 05:10:48;;;;;;;21.27;8.63;;;;;;;-4.65;100.00;102421.91;5070011;28;20030;-77
2022/03/07 05:13:14;;;;;;;18.98;8.38;;;;;;;-4.67;100.00;102427.13;5087456;28;20035;-76
2022/03/07 05:15:40;;;;;;;16.17;7.72;;;;;;;-4.61;100.00;102431.41;5088779;28;20455;-77
2022/03/07 05:18:06;;;;;;;15.10;7.90;;;;;;;-4.50;100.00;102429.47;5090509;28;20562;-75
2022/03/07 05:20:33;;;;;;;18.25;7.57;;;;;;;-4.47;100.00;102436.41;5055779;28;20476;-75
2022/03/07 05:22:58;;;;;;;27.30;8.32;;;;;;;-4.32;100.00;102436.13;5056428;28;20031;-76
2022/03/07 05:25:24;;;;;;;18.80;7.65;;;;;;;-4.25;100.00;102440.34;5089455;28;20424;-77
2022/03/07 05:27:50;;;;;;;15.60;7.40;;;;;;;-4.36;100.00;102429.25;5089338;28;20105;-76
2022/03/07 05:30:18;;;;;;;14.18;6.85;;;;;;;-4.32;100.00;102436.13;5072595;28;20052;-76
2022/03/07 05:32:50;;;;;;;14.45;8.20;;;;;;;-4.22;100.00;102441.19;5072594;28;20040;-77
2022/03/07 05:35:16;;;;;;;14.98;7.63;;;;;;;-4.16;100.00;102441.09;5055959;28;20085;-76
2022/03/07 05:37:41;;;;;;;18.75;7.13;;;;;;;-4.18;100.00;102450.69;5090720;28;20032;-78
2022/03/07 05:40:09;;;;;;;15.10;6.63;;;;;;;-4.18;100.00;102448.09;5089282;28;20036;-76
2022/03/07 05:42:35;;;;;;;15.50;6.60;;;;;;;-4.09;100.00;102453.16;5072272;28;20503;-76
2022/03/07 05:45:00;;;;;;;;;;;;;;;-4.04;100.00;102446.09;5073417;28;20027;-77
2022/03/07 05:47:26;;;;;;;16.98;6.93;;;;;;;-4.08;100.00;102445.28;5072833;28;19977;-76
2022/03/07 05:49:51;;;;;;;11.15;6.07;;;;;;;-3.93;100.00;102446.78;5055902;28;20439;-75
2022/03/07 05:52:17;;;;;;;14.25;6.45;;;;;;;-4.07;100.00;102436.56;5071800;28;20123;-75
2022/03/07 05:54:42;;;;;;;15.10;6.35;;;;;;;-4.07;100.00;102435.72;5090558;28;20434;-76
2022/03/07 05:57:07;;;;;;;14.82;6.30;;;;;;;-4.05;100.00;102439.13;5088715;28;20111;-77
2022/03/07 05:59:33;;;;;;;13.50;7.30;;;;;;;-4.10;100.00;102440.97;5088305;28;20063;-77
2022/03/07 06:01:58;;;;;;;14.75;7.30;;;;;;;-4.11;100.00;102431.44;5089935;28;20028;-77
2022/03/07 06:04:24;;;;;;;13.85;7.35;;;;;;;-4.06;100.00;102427.84;5089658;28;20066;-77
2022/03/07 06:06:49;;;;;;;15.35;7.07;;;;;;;-3.91;100.00;102442.38;5065960;28;20028;-75
2022/03/07 06:09:15;;;;;;;13.82;6.88;;;;;;;-3.92;100.00;102427.59;5069100;28;20230;-76
2022/03/07 06:11:40;;;;;;;18.00;7.82;;;;;;;-3.88;100.00;102426.66;5051527;28;20040;-78
2022/03/07 06:14:05;;;;;;;13.30;6.50;;;;;;;-3.82;100.00;102428.28;5067958;28;20047;-77
2022/03/07 06:16:31;;;;;;;20.30;7.90;;;;;;;-3.83;100.00;102430.03;5051129;28;20588;-78
2022/03/07 06:18:56;;;;;;;19.08;7.15;;;;;;;-3.79;100.00;102438.69;5050785;28;20411;-75
2022/03/07 06:21:22;;;;;;;15.10;7.47;;;;;;;-3.64;100.00;102445.34;5067479;28;20044;-75
2022/03/07 06:23:47;;;;;;;14.95;7.63;;;;;;;-3.57;100.00;102444.34;5051030;28;20032;-76
2022/03/07 06:26:12;;;;;;;15.52;6.38;;;;;;;-3.53;100.00;102443.41;5034350;28;20051;-76
2022/03/07 06:28:38;;;;;;;14.10;6.57;;;;;;;-3.54;100.00;102438.19;5050817;28;20070;-76
2022/03/07 06:31:03;;;;;;;16.92;7.93;;;;;;;-3.50;100.00;102445.09;5067479;28;20027;-76
2022/03/07 06:33:28;;;;;;;16.15;7.90;;;;;;;-3.46;100.00;102449.38;5069579;28;20086;-76
2022/03/07 06:35:54;;;;;;;15.70;7.63;;;;;;;-3.49;100.00;102446.78;5050901;28;20036;-77
2022/03/07 06:38:21;;;;;;;14.73;7.60;;;;;;;-3.41;100.00;102443.16;5035026;28;20029;-76
2022/03/07 06:40:46;;;;;;;16.73;7.70;;;;;;;-3.29;100.00;102447.25;5034359;28;20025;-75
2022/03/07 06:43:12;;;;;;;12.88;7.10;;;;;;;-3.22;100.00;102448.84;5034987;28;20748;-75
2022/03/07 06:45:38;;;;;;;14.30;7.70;;;;;;;-2.96;100.00;102455.28;5067780;28;20059;-76
2022/03/07 06:48:04;;;;;;;;;;;;;;;-2.71;100.00;102460.81;5051673;28;20036;-77
2022/03/07 06:50:30;;;;;;;14.95;7.10;;;;;;;-2.65;100.00;102460.66;5051968;28;19912;-78
2022/03/07 06:52:56;;;;;;;18.33;7.80;;;;;;;-2.57;100.00;102463.97;5051381;28;20502;-79
2022/03/07 06:55:22;;;;;;;15.57;8.02;;;;;;;-2.48;100.00;102469.88;5035174;28;20058;-76
2022/03/07 06:57:48;;;;;;;17.08;7.25;;;;;;;-2.37;100.00;102466.09;5052149;28;20485;-78
2022/03/07 07:00:15;;;;;;;17.92;8.77;;;;;;;-2.02;100.00;102473.97;5052218;28;20032;-77
2022/03/07 07:02:42;;;;;;;15.30;7.78;;;;;;;-1.33;100.00;102490.47;5070102;28;20485;-79
2022/03/07 07:05:08;;;;;;;18.52;9.43;;;;;;;-0.76;100.00;102486.19;5052104;28;20040;-77
2022/03/07 07:07:35;;;;;;;20.10;8.82;;;;;;;-0.24;100.00;102493.25;5070089;28;20025;-77
2022/03/07 07:10:01;;;;;;;17.58;7.97;;;;;;;0.18;100.00;102494.50;5034657;28;20040;-78
2022/03/07 07:12:28;;;;;;;19.50;9.27;;;;;;;0.68;100.00;102497.13;5035167;28;20054;-77
2022/03/07 07:14:53;;;;;;;13.20;8.07;;;;;;;0.90;100.00;102498.97;5035129;28;20115;-78
2022/03/07 07:17:18;;;;;;;21.15;8.75;;;;;;;1.10;100.00;102470.13;5070347;28;20548;-79
2022/03/07 07:19:44;;;;;;;16.90;7.40;;;;;;;1.43;100.00;102485.53;5035040;28;20036;-77
2022/03/07 07:22:10;;;;;;;18.90;9.37;;;;;;;1.73;100.00;102482.56;5052168;28;20024;-79
2022/03/07 07:24:35;;;;;;;13.10;7.68;;;;;;;2.11;100.00;102487.09;5051571;28;20036;-79
2022/03/07 07:27:01;;;;;;;13.70;7.32;;;;;;;2.18;100.00;102485.06;5068688;28;20524;-77
2022/03/07 07:29:27;;;;;;;12.98;7.10;;;;;;;2.35;100.00;102479.06;5034916;28;20496;-76
2022/03/07 07:31:52;;;;;;;9.43;6.13;;;;;;;2.79;100.00;102473.59;5069557;28;20028;-77
2022/03/07 07:34:22;;;;;;;9.40;5.63;;;;;;;3.28;100.00;102462.53;5034950;28;20041;-78
2022/03/07 07:36:48;;;;;;;13.82;6.00;;;;;;;3.54;100.00;102440.16;5034052;28;20064;-77
2022/03/07 07:39:14;;;;;;;11.57;6.07;;;;;;;3.29;100.00;102414.06;5051069;28;20024;-78
2022/03/07 07:41:40;;;;;;;;;;;;;;;3.10;100.00;102391.22;5033407;28;20547;-79
2022/03/07 07:44:05;;;;;;;;;;;;;;;3.34;100.00;102369.81;5069789;28;19916;-77
2022/03/07 07:46:30;;;;;;;9.40;5.20;;;;;;;4.10;100.00;102359.78;5051044;28;19912;-76
2022/03/07 07:48:56;;;;;;;7.70;4.90;;;;;;;4.56;100.00;102346.69;5051269;28;20036;-78
2022/03/07 07:51:21;;;;;;;8.67;5.53;;;;;;;4.84;100.00;102308.97;5067856;28;20071;-77
2022/03/07 07:53:47;;;;;;;10.15;5.20;;;;;;;5.23;100.00;102299.69;5051708;28;20807;-77
2022/03/07 07:56:12;;;;;;;9.27;5.10;;;;;;;5.65;98.56;102279.53;5034632;28;20492;-78
2022/03/07 07:58:38;;;;;;;23.43;6.13;;;;;;;6.08;94.23;102246.91;5068533;28;20647;-78
2022/03/07 08:01:04;;;;;;;17.97;5.90;;;;;;;6.41;89.65;102193.47;5068098;28;20033;-78
2022/03/07 08:03:29;;;;;;;12.07;5.30;;;;;;;6.81;86.03;102164.28;5069377;28;20423;-76
2022/03/07 08:05:55;;;;;;;6.23;4.30;;;;;;;7.06;82.97;102118.34;5039569;28;20033;-78
2022/03/07 08:08:20;;;;;;;8.13;4.43;;;;;;;7.19;79.47;102052.78;5057808;28;20044;-78
2022/03/07 08:10:46;;;;;;;5.90;3.80;;;;;;;7.47;78.19;102039.34;5070601;28;20039;-79
2022/03/07 08:13:11;;;;;;;8.60;4.57;;;;;;;7.81;76.03;102011.16;5063625;28;20509;-75
2022/03/07 08:15:37;;;;;;;11.37;4.43;;;;;;;8.00;73.74;101974.22;5039116;28;20505;-76
2022/03/07 08:18:03;;;;;;;13.27;4.50;;;;;;;8.32;71.87;101930.19;5052620;28;20481;-78
2022/03/07 08:20:28;;;;;;;8.30;4.22;;;;;;;8.40;70.69;101906.50;5066939;28;20033;-78
2022/03/07 08:22:54;;;;;;;10.67;4.33;;;;;;;7.98;70.54;101907.03;5059484;28;20032;-78
2022/03/07 08:25:21;;;;;;;10.52;4.53;;;;;;;8.70;69.71;101929.88;5048034;28;20037;-78
2022/03/07 08:27:47;;;;;;;10.75;4.82;;;;;;;8.85;67.65;101854.09;5030583;28;20036;-74
2022/03/07 08:30:14;;;;;;;7.55;4.05;;;;;;;9.29;66.66;101862.94;5049235;28;20040;-78
2022/03/07 08:32:40;;;;;;;6.88;3.97;;;;;;;9.64;65.04;101808.47;5049459;28;20517;-77
2022/03/07 08:35:07;;;;;;;9.50;4.53;;;;;;;10.04;63.05;101742.84;5048550;28;20037;-77
2022/03/07 08:37:33;;;;;;;7.50;4.25;;;;;;;10.19;62.34;101733.50;5028518;28;20041;-76
2022/03/07 08:39:59;;;;;;;7.30;4.20;;;;;;;10.09;62.01;101722.78;5041518;28;20492;-78
2022/03/07 08:42:26;;;;;;;5.32;3.90;;;;;;;10.50;61.06;101720.94;5061696;28;20062;-79
2022/03/07 08:44:52;;;;;;;6.03;3.75;;;;;;;10.39;60.18;101650.81;5015198;28;20095;-78
2022/03/07 08:47:18;;;;;;;;;;;;;;;10.88;59.37;101687.22;5049844;28;20492;-78
2022/03/07 08:49:43;;;;;;;;;;;;;;;11.13;57.91;101636.84;5028823;28;19939;-77
2022/03/07 08:52:09;;;;;;;;;;;;;;;11.35;57.18;101604.41;5045134;28;19928;-76
2022/03/07 08:54:35;;;;;;;5.73;3.20;;;;;;;11.66;56.66;101611.31;5028387;28;19913;-74
2022/03/07 08:57:01;;;;;;;6.30;3.17;;;;;;;10.99;55.50;101443.91;5045808;28;20033;-76
2022/03/07 08:59:28;;;;;;;3.97;2.63;;;;;;;11.19;56.27;101578.31;5045623;28;20460;-76
2022/03/07 09:01:57;;;;;;;6.45;2.92;;;;;;;11.32;56.00;101550.41;5010412;28;20033;-74
2022/03/07 09:04:24;;;;;;;5.13;3.50;;;;;;;11.51;55.18;101536.91;5027364;28;20548;-77
2022/03/07 09:06:52;;;;;;;4.82;2.92;;;;;;;11.82;54.56;101533.91;5028168;28;20048;-77
2022/03/07 09:09:18;;;;;;;7.25;2.75;;;;;;;12.07;53.62;101481.50;5024824;28;20017;-75
2022/03/07 09:11:44;;;;;;;2.30;2.07;;;;;;;11.82;52.42;101387.63;5066092;28;20382;-75
2022/03/07 09:14:11;;;;;;;5.53;3.38;;;;;;;12.26;52.79;101491.19;5064887;28;20285;-77
2022/03/07 09:16:36;;;;;;;11.55;3.72;;;;;;;12.38;52.23;101435.56;5048515;28;20538;-77
2022/03/07 09:19:02;;;;;;;7.50;3.47;;;;;;;12.89;51.06;101434.66;5047106;28;20048;-77
2022/03/07 09:21:28;;;;;;;;;;;;;;;12.62;50.19;101299.09;5065739;28;20077;-76
2022/03/07 09:23:53;;;;;;;;;;;;;;;12.83;50.29;101370.16;5048557;28;19916;-75
2022/03/07 09:26:18;;;;;;;6.67;3.23;;;;;;;12.93;50.02;101378.91;5052762;28;20373;-75
2022/03/07 09:28:44;;;;;;;5.83;3.33;;;;;;;12.17;50.76;101321.63;5052275;28;20098;-77
2022/03/07 09:31:10;;;;;;;6.82;3.42;;;;;;;13.09;50.01;101429.06;5050642;28;20029;-77
2022/03/07 09:33:36;;;;;;;5.57;2.65;;;;;;;13.19;49.23;101362.72;5064759;28;20182;-77
2022/03/07 09:36:03;;;;;;;9.02;3.17;;;;;;;12.71;48.85;101235.66;5031689;28;20043;-77
2022/03/07 09:38:29;;;;;;;7.65;3.20;;;;;;;11.91;49.99;101228.00;5047830;28;20094;-75
2022/03/07 09:40:56;;;;;;;7.03;2.80;;;;;;;12.34;50.74;101386.84;5031498;28;20025;-77
2022/03/07 09:43:22;;;;;;;6.85;3.45;;;;;;;12.16;50.95;101391.41;5047880;28;20037;-77
2022/03/07 09:45:48;;;;;;;157.30;19.73;;;;;;;12.31;49.85;101328.25;5048007;28;20036;-77
2022/03/07 09:48:14;;;;;;;8.15;3.80;;;;;;;12.58;49.55;101316.50;5047856;28;20154;-75
2022/03/07 09:50:41;;;;;;;4.28;2.58;;;;;;;12.72;49.02;101316.88;5065364;28;20606;-77
2022/03/07 09:53:08;;;;;;;5.55;2.72;;;;;;;12.74;48.82;101317.56;5030957;28;20037;-76
2022/03/07 09:55:35;;;;;;;5.10;3.00;;;;;;;12.82;48.58;101278.19;5065499;28;20729;-75
2022/03/07 09:58:00;;;;;;;5.65;3.28;;;;;;;12.90;48.34;101280.09;5047366;28;20040;-76
2022/03/07 10:00:26;;;;;;;55.85;8.85;;;;;;;13.60;47.17;101292.19;5064494;28;20036;-75
2022/03/07 10:03:00;;;;;;;4.03;2.23;;;;;;;13.31;46.39;101210.41;5067635;28;20032;-77
2022/03/07 10:05:27;;;;;;;8.18;2.40;;;;;;;13.60;46.71;101250.13;5068696;28;20037;-77
2022/03/07 10:07:52;;;;;;;4.47;2.70;;;;;;;13.24;46.38;101179.91;5050874;28;20036;-76
2022/03/07 10:10:18;;;;;;;4.70;2.63;;;;;;;12.81;46.46;101152.47;5067388;28;20046;-77
2022/03/07 10:12:48;;;;;;;4.47;2.73;;;;;;;13.20;47.08;101277.75;5067910;28;20485;-76
2022/03/07 10:15:17;;;;;;;5.70;2.80;;;;;;;12.93;45.98;101129.66;5033852;28;20067;-75
2022/03/07 10:17:52;;;;;;;5.85;3.13;;;;;;;13.05;45.71;101144.41;5067418;28;20054;-76
2022/03/07 10:20:24;;;;;;;5.07;2.53;;;;;;;13.17;45.44;101125.28;5050187;28;20123;-76
2022/03/07 10:22:52;;;;;;;8.27;2.63;;;;;;;13.19;45.15;101139.34;5067277;28;20028;-76
2022/03/07 10:25:24;;;;;;;4.20;2.80;;;;;;;13.94;44.91;101236.44;5067913;28;20584;-76
2022/03/07 10:27:50;;;;;;;4.72;2.70;;;;;;;13.29;44.14;101022.88;5033766;28;20068;-76
2022/03/07 10:30:20;;;;;;;3.63;2.50;;;;;;;13.88;44.27;101159.31;5066384;28;20020;-76
2022/03/07 10:33:01;;;;;;;4.82;2.35;;;;;;;14.27;44.10;101179.94;5067051;28;20028;-76
2022/03/07 10:35:31;;;;;;;5.47;2.85;;;;;;;13.44;43.46;100993.50;5028648;28;20498;-77
2022/03/07 10:37:59;;;;;;;4.57;2.55;;;;;;;13.83;43.91;101120.59;5052753;28;20032;-76
2022/03/07 10:40:26;;;;;;;4.20;2.67;;;;;;;14.31;42.84;101132.91;5046197;28;20659;-77
2022/03/07 10:42:54;;;;;;;;;;;;;;;14.66;42.21;101087.69;5066115;28;20052;-75
2022/03/07 10:45:21;;;;;;;4.85;3.20;;;;;;;14.59;41.48;101002.63;5049605;28;20006;-76
2022/03/07 10:47:54;;;;;;;6.25;3.08;;;;;;;13.54;41.66;100852.97;5066730;28;20020;-76
2022/03/07 10:50:22;;;;;;;5.35;3.47;;;;;;;14.02;41.86;100959.06;5066045;28;20033;-76
2022/03/07 10:52:51;;;;;;;20.63;6.50;;;;;;;13.82;43.06;101070.63;5070940;28;20041;-75
2022/03/07 10:55:23;;;;;;;8.65;6.40;;;;;;;14.78;42.44;101182.16;5061702;28;20025;-76
2022/03/07 10:57:48;;;;;;;5.63;3.50;;;;;;;14.59;40.86;100946.19;5012247;28;20131;-75
2022/03/07 11:00:17;;;;;;;5.27;2.63;;;;;;;14.61;41.58;101027.44;5029934;28;20040;-75
2022/03/07 11:02:47;;;;;;;7.25;3.00;;;;;;;14.49;40.90;100954.47;5047007;28;20025;-77
2022/03/07 11:05:14;;;;;;;4.85;2.85;;;;;;;14.03;39.89;100806.91;5013740;28;20025;-75
2022/03/07 11:07:43;;;;;;;4.18;2.28;;;;;;;13.59;40.31;100794.25;5063433;28;20029;-75
2022/03/07 11:10:12;;;;;;;3.83;2.17;;;;;;;14.28;38.96;100784.16;5063312;28;20027;-76
2022/03/07 11:12:38;;;;;;;4.47;1.90;;;;;;;14.47;38.43;100806.06;5048529;28;20036;-76